createdAt,value
2018-12-25T00:01:26.527Z,33.3
2018-12-25T00:06:28.354Z,19.2
2018-12-25T00:11:29.773Z,20.2
2018-12-25T00:16:31.174Z,23
2018-12-25T00:21:33.398Z,22
2018-12-25T00:26:35.077Z,16.6
2018-12-25T00:31:38.364Z,28.6
2018-12-25T00:36:48.156Z,20.7
2018-12-25T00:41:50.164Z,40.3
2018-12-25T00:46:52.241Z,53.5
2018-12-25T00:51:54.484Z,33.6
2018-12-25T00:56:55.874Z,30.8
2018-12-25T01:01:59.813Z,38.3
2018-12-25T01:07:03.260Z,27.9
2018-12-25T01:12:05.093Z,23.9
2018-12-25T01:17:06.606Z,31.1
2018-12-25T01:22:08.068Z,27.1
2018-12-25T01:27:10.268Z,23.9
2018-12-25T01:32:12.480Z,25.8
2018-12-25T01:37:14.564Z,23.7
2018-12-25T01:42:24.758Z,22.7
2018-12-25T01:47:26.041Z,17.4
2018-12-25T01:52:28.339Z,17.6
2018-12-25T01:57:29.678Z,17.4
2018-12-25T02:02:32.187Z,14.6
2018-12-25T02:07:35.996Z,17.1
2018-12-25T02:12:37.604Z,14
2018-12-25T02:17:39.797Z,11.2
2018-12-25T02:22:42.024Z,24
2018-12-25T02:27:43.924Z,19
2018-12-25T02:32:46.103Z,10.2
2018-12-25T02:37:47.873Z,13
2018-12-25T02:42:50.233Z,10.3
2018-12-25T02:48:00.361Z,10.9
2018-12-25T02:53:02.664Z,16.6
2018-12-25T02:58:03.945Z,16.7
2018-12-25T03:03:05.572Z,13.1
2018-12-25T03:08:08.302Z,12.2
2018-12-25T03:13:10.163Z,13.7
2018-12-25T03:18:11.704Z,13.1
2018-12-25T03:23:13.703Z,13.2
2018-12-25T03:28:15.565Z,12.1
2018-12-25T03:33:17.573Z,10.7
2018-12-25T03:38:19.285Z,11.8
2018-12-25T03:43:20.708Z,10.4
2018-12-25T03:48:22.767Z,9
2018-12-25T03:53:26.076Z,10.2
2018-12-25T03:58:29.360Z,10.4
2018-12-25T04:03:32.382Z,10.2
2018-12-25T04:08:34.549Z,8.7
2018-12-25T04:13:36.742Z,10.8
2018-12-25T04:18:38.495Z,9.6
2018-12-25T04:23:41.057Z,9.3
2018-12-25T04:28:43.236Z,6.4
2018-12-25T04:33:45.320Z,10.6
2018-12-25T04:38:47.611Z,9.5
2018-12-25T04:43:49.198Z,11.8
2018-12-25T04:48:51.238Z,9.8
2018-12-25T04:53:53.760Z,7.7
2018-12-25T04:58:55.590Z,8.1
2018-12-25T05:03:57.142Z,8.2
2018-12-25T05:08:59.186Z,6.7
2018-12-25T05:14:00.837Z,13.4
2018-12-25T05:19:03.195Z,13.4
2018-12-25T05:24:05.299Z,14.6
2018-12-25T05:29:07.150Z,17.3
2018-12-25T05:34:07.305Z,13
2018-12-25T05:39:09.306Z,15.1
2018-12-25T05:44:13.218Z,20.9
2018-12-25T05:49:15.214Z,21.1
2018-12-25T05:54:18.182Z,23.9
2018-12-25T05:59:19.725Z,19.6
2018-12-25T06:04:21.429Z,25.8
2018-12-25T06:09:22.885Z,35.5
2018-12-25T06:14:24.933Z,33.2
2018-12-25T06:19:27.715Z,102.8
2018-12-25T06:24:37.806Z,78.6
2018-12-25T06:29:40.101Z,56.8
2018-12-25T06:34:41.287Z,44.3
2018-12-25T06:39:48.920Z,48.4
2018-12-25T06:44:49.826Z,40.1
2018-12-25T06:49:59.541Z,43.7
2018-12-25T06:54:59.927Z,35.2
2018-12-25T07:00:03.779Z,30.6
2018-12-25T07:05:13.874Z,29.2
2018-12-25T07:10:16.972Z,35.9
2018-12-25T07:15:32.746Z,28.8
2018-12-25T07:20:29.565Z,26.5
2018-12-25T07:25:31.773Z,28.1
2018-12-25T07:30:38.405Z,28.3
2018-12-25T07:35:44.225Z,31.7
2018-12-25T07:40:47.862Z,32.4
2018-12-25T07:45:49.857Z,34.2
2018-12-25T07:51:01.240Z,40.2
2018-12-25T07:55:55.232Z,33.3
2018-12-25T08:00:57.261Z,37.7
2018-12-25T08:06:03.942Z,32.7
2018-12-25T08:10:59.719Z,36.7
2018-12-25T08:16:01.370Z,36.7
2018-12-25T08:21:03.652Z,40
2018-12-25T08:26:03.367Z,49.7
2018-12-25T08:31:05.592Z,91.8
2018-12-25T08:36:09.524Z,75.8
2018-12-25T08:41:11.236Z,75
2018-12-25T08:46:21.120Z,75.4
2018-12-25T08:51:22.310Z,65
2018-12-25T08:56:24.611Z,68.6
2018-12-25T09:01:26.511Z,54.4
2018-12-25T09:06:36.868Z,55.2
2018-12-25T09:11:38.079Z,45.1
2018-12-25T09:16:40.751Z,45.3
2018-12-25T09:21:46.059Z,43.1
2018-12-25T09:26:48.045Z,42
2018-12-25T09:31:49.739Z,45.5
2018-12-25T09:36:59.994Z,51.1
2018-12-25T09:42:01.824Z,54.5
2018-12-25T09:47:04.367Z,60.3
2018-12-25T09:52:06.246Z,44.4
2018-12-25T09:57:07.702Z,44.3
2018-12-25T10:02:09.748Z,45.8
2018-12-25T10:07:20.082Z,86.9
2018-12-25T12:27:47.698Z,36.3
2018-12-25T12:32:49.082Z,47.9
2018-12-25T12:37:50.561Z,58.3
2018-12-25T12:42:52.753Z,120.8
2018-12-25T12:47:55.222Z,62.5
2018-12-25T12:53:01.630Z,56
2018-12-25T12:58:02.376Z,54.4
2018-12-25T13:03:03.939Z,47.3
2018-12-25T13:08:06.492Z,57.5
2018-12-25T13:13:08.103Z,40
2018-12-25T13:18:10.068Z,53.2
2018-12-25T13:23:11.731Z,40.7
2018-12-25T13:28:13.627Z,33.3
2018-12-25T13:33:15.583Z,35.3
2018-12-25T13:38:17.805Z,36.3
2018-12-25T13:43:19.406Z,32.8
2018-12-25T13:48:29.367Z,31.1
2018-12-25T13:53:30.796Z,31.8
2018-12-25T13:58:32.564Z,25
2018-12-25T14:03:32.774Z,26.5
2018-12-25T14:08:34.681Z,33
2018-12-25T14:13:36.424Z,28.4
2018-12-25T14:18:38.143Z,23.1
2018-12-25T14:23:39.581Z,19.3
2018-12-25T14:28:41.777Z,20.5
2018-12-25T14:33:43.853Z,19.9
2018-12-25T14:38:45.200Z,19.7
2018-12-25T14:43:46.629Z,26.1
2018-12-25T14:48:48.544Z,44.6
2018-12-25T14:53:50.678Z,46.2
2018-12-25T14:58:53.055Z,58.9
2018-12-25T15:03:54.975Z,65.5
2018-12-25T15:08:56.676Z,72.3
2018-12-25T15:14:00.526Z,62.3
2018-12-25T15:19:02.404Z,52.4
2018-12-25T15:24:04.409Z,50
2018-12-25T15:29:05.881Z,52.5
2018-12-25T15:34:07.999Z,54.3
2018-12-25T15:39:09.748Z,50
2018-12-25T15:44:12.662Z,37.9
2018-12-25T15:49:14.182Z,40.3
2018-12-25T15:54:17.435Z,37.4
2018-12-25T15:59:18.875Z,33.5
2018-12-25T16:04:21.482Z,37.1
2018-12-25T16:09:23.361Z,31.7
2018-12-25T16:14:25.169Z,29.5
2018-12-25T16:19:31.378Z,28.3
2018-12-25T16:24:32.965Z,27.3
2018-12-25T16:29:38.328Z,27.2
2018-12-25T16:34:40.879Z,27
2018-12-25T16:39:43.152Z,25.8
2018-12-25T16:44:45.147Z,25.6
2018-12-25T16:49:46.612Z,26.2
2018-12-25T16:54:48.733Z,24.3
2018-12-25T16:59:50.242Z,34.8
2018-12-25T17:04:51.740Z,31.3
2018-12-25T17:09:51.968Z,27.8
2018-12-25T17:14:53.846Z,28.5
2018-12-25T17:19:55.406Z,28.5
2018-12-25T17:24:59.687Z,30.2
2018-12-25T17:30:01.859Z,30.6
2018-12-25T17:35:03.269Z,35.4
2018-12-25T17:40:04.513Z,34.2
2018-12-25T17:45:06.768Z,31.4
2018-12-25T17:50:08.429Z,35.1
2018-12-25T17:55:11.254Z,35.6
2018-12-25T18:00:12.327Z,32.8
2018-12-25T18:05:13.075Z,31.8
2018-12-25T18:10:15.137Z,32.3
2018-12-25T18:15:17.956Z,34.8
2018-12-25T18:20:20.411Z,31.3
2018-12-25T18:25:22.445Z,26.4
2018-12-25T18:30:24.768Z,27.3
2018-12-25T18:35:26.900Z,26.9
2018-12-25T18:40:28.856Z,25.1
2018-12-25T18:45:31.653Z,23.8
2018-12-25T18:50:33.490Z,27.6
2018-12-25T18:55:35.836Z,24
2018-12-25T19:00:38.970Z,24.7
2018-12-25T19:05:40.560Z,33.2
2018-12-25T19:10:42.296Z,27.4
2018-12-25T19:15:44.685Z,21.7
2018-12-25T19:20:47.583Z,67.7
2018-12-25T19:25:49.867Z,57.4
2018-12-25T19:30:52.364Z,48
2018-12-25T19:35:53.768Z,95.6
2018-12-25T19:40:58.483Z,96.7
2018-12-25T19:46:02.853Z,74.4
2018-12-25T19:51:04.769Z,72.8
2018-12-25T19:56:06.087Z,71.8
2018-12-25T20:01:08.418Z,92.1
2018-12-25T20:06:10.549Z,86.4
2018-12-25T20:11:12.810Z,77.4
2018-12-25T20:16:14.191Z,75.7
2018-12-25T20:21:15.653Z,63.1
2018-12-25T20:26:17.595Z,62.3
2018-12-25T20:31:19.370Z,57.2
2018-12-25T20:36:21.281Z,41.4
2018-12-25T20:41:23.073Z,39.6
2018-12-25T20:46:24.705Z,36.4
2018-12-25T20:51:25.996Z,37.3
2018-12-25T20:56:27.999Z,31.6
2018-12-25T21:01:38.689Z,27.7
2018-12-25T21:06:41.593Z,34.1
2018-12-25T21:11:41.843Z,28.1
2018-12-25T21:16:44.327Z,29.4
2018-12-25T21:21:46.996Z,41.7
2018-12-25T21:26:48.494Z,24.2
2018-12-25T21:31:51.205Z,24.2
2018-12-25T21:36:53.204Z,26
2018-12-25T21:41:55.339Z,30.4
2018-12-25T21:46:57.932Z,27.9
2018-12-25T21:51:59.279Z,31.5
2018-12-25T21:56:59.359Z,29.1
2018-12-25T22:02:01.067Z,31.8
2018-12-25T22:07:02.943Z,25.4
2018-12-25T22:12:07.446Z,24.3
2018-12-25T22:17:08.893Z,20.4
2018-12-25T22:22:10.489Z,23.3
2018-12-25T22:27:12.172Z,19.6
2018-12-25T22:32:13.771Z,20.4
2018-12-25T22:37:16.727Z,20.7
2018-12-25T22:42:17.932Z,21
2018-12-25T22:47:19.287Z,17.5
2018-12-25T22:52:20.571Z,15.9
2018-12-25T22:57:21.947Z,16.8
2018-12-25T23:02:24.099Z,18.6
2018-12-25T23:07:25.825Z,22.8
2018-12-25T23:12:27.534Z,22.1
2018-12-25T23:17:29.766Z,18.8
2018-12-25T23:22:32.067Z,18.1
2018-12-25T23:27:33.857Z,14.8
2018-12-25T23:32:35.425Z,16.8
2018-12-25T23:37:37.429Z,21.6
2018-12-25T23:42:38.987Z,13.8
2018-12-25T23:47:41.152Z,12.5
2018-12-25T23:52:41.352Z,12.6
2018-12-25T23:57:43.633Z,16.2
